Time;durP1;ratioP1;P1;durP2;ratioP2;P2;SDS_P1;SDS_P2;PMS_P1;PMS_P2;Temp;Humidity;BMP_temperature;BMP_pressure;BME280_temperature;BME280_humidity;BME280_pressure;Samples;Min_cycle;Max_cycle;Signal;HPM_P1;HPM_P2
2024/01/31 00:00:15;;;;;;;20.30;13.27;;;7.00;99.90;;;;;;5071533;28;20617;-66
2024/01/31 00:02:52;;;;;;;17.60;12.93;;;7.10;99.90;;;;;;5089853;28;20674;-65
2024/01/31 00:05:27;;;;;;;20.90;12.80;;;7.10;99.90;;;;;;5089950;28;20197;-66
2024/01/31 00:07:55;;;;;;;17.43;12.07;;;7.30;99.90;;;;;;5089715;28;20204;-65
2024/01/31 00:10:30;;;;;;;19.30;12.50;;;7.30;99.90;;;;;;5089640;28;20507;-65
2024/01/31 00:12:58;;;;;;;16.57;13.47;;;7.30;99.90;;;;;;5089814;28;20216;-65
2024/01/31 00:15:26;;;;;;;19.53;12.27;;;7.40;99.90;;;;;;5089697;28;20284;-63
2024/01/31 00:17:56;;;;;;;23.00;13.00;;;7.40;99.90;;;;;;5089731;28;20199;-65
2024/01/31 00:20:25;;;;;;;18.27;12.43;;;7.40;99.90;;;;;;5089531;28;20211;-65
2024/01/31 00:22:53;;;;;;;19.33;12.23;;;7.50;99.90;;;;;;5089590;28;20207;-65
2024/01/31 00:25:28;;;;;;;18.67;12.63;;;7.50;99.90;;;;;;5089528;28;20267;-64
2024/01/31 00:27:56;;;;;;;22.87;12.50;;;7.50;99.90;;;;;;5089625;28;20254;-65
2024/01/31 00:30:25;;;;;;;20.73;13.33;;;7.50;99.90;;;;;;5088067;28;20741;-64
2024/01/31 00:32:53;;;;;;;21.10;13.57;;;7.50;99.90;;;;;;5089384;28;20294;-65
2024/01/31 00:35:23;;;;;;;21.20;13.53;;;7.50;99.90;;;;;;5089306;28;20215;-64
2024/01/31 00:37:53;;;;;;;19.23;13.27;;;7.40;99.90;;;;;;5089274;28;20200;-65
2024/01/31 00:40:28;;;;;;;24.27;13.90;;;7.30;99.90;;;;;;5088943;28;20672;-64
2024/01/31 00:42:56;;;;;;;23.00;14.53;;;7.30;99.90;;;;;;5089353;28;20196;-65
2024/01/31 00:45:25;;;;;;;19.73;14.37;;;7.40;99.90;;;;;;5089093;28;20252;-64
2024/01/31 00:47:53;;;;;;;21.90;13.77;;;7.40;99.90;;;;;;5089167;28;20602;-65
2024/01/31 00:50:23;;;;;;;27.87;14.83;;;7.60;99.90;;;;;;5089177;28;20239;-65
2024/01/31 00:53:05;;;;;;;19.03;13.17;;;7.50;99.90;;;;;;5088923;28;20537;-66
2024/01/31 00:55:47;;;;;;;26.63;14.03;;;7.40;99.90;;;;;;5088920;28;20678;-65
2024/01/31 00:58:29;;;;;;;22.20;14.00;;;7.40;99.90;;;;;;5088988;28;20200;-64
2024/01/31 01:01:04;;;;;;;21.70;14.37;;;7.40;99.90;;;;;;5088743;28;20204;-65
2024/01/31 01:03:33;;;;;;;25.93;14.07;;;7.50;99.90;;;;;;5070018;28;20285;-65
2024/01/31 01:06:04;;;;;;;25.93;14.13;;;7.50;99.90;;;;;;5088908;28;20198;-64
2024/01/31 01:08:33;;;;;;;24.53;14.43;;;7.50;99.90;;;;;;5088752;28;20187;-64
2024/01/31 01:11:01;;;;;;;25.40;15.67;;;7.40;99.90;;;;;;5088661;28;20949;-64
2024/01/31 01:13:30;;;;;;;29.47;14.83;;;7.50;99.90;;;;;;5088759;28;20327;-63
2024/01/31 01:15:58;;;;;;;28.23;14.73;;;7.50;99.90;;;;;;5088709;28;20204;-65
2024/01/31 01:18:26;;;;;;;24.30;14.27;;;7.50;99.90;;;;;;5088775;28;20277;-65
2024/01/31 01:20:55;;;;;;;32.10;14.60;;;7.50;99.90;;;;;;5088885;28;20197;-64
2024/01/31 01:23:24;;;;;;;25.93;15.07;;;7.50;99.90;;;;;;5088851;28;20198;-65
2024/01/31 01:25:52;;;;;;;23.80;14.77;;;7.40;99.90;;;;;;5088593;28;20281;-63
2024/01/31 01:28:21;;;;;;;23.37;14.67;;;7.40;99.90;;;;;;5088713;28;20192;-64
2024/01/31 01:30:49;;;;;;;24.43;15.10;;;7.50;99.90;;;;;;5088285;28;20351;-65
2024/01/31 01:33:18;;;;;;;25.53;14.93;;;7.50;99.90;;;;;;5088714;28;20219;-65
2024/01/31 01:35:46;;;;;;;25.80;15.27;;;7.60;99.90;;;;;;5088520;28;20686;-64
2024/01/31 01:38:14;;;;;;;24.13;13.93;;;7.60;99.90;;;;;;5088559;28;20289;-65
2024/01/31 01:40:45;;;;;;;23.43;14.60;;;7.50;99.90;;;;;;5088524;28;20666;-64
2024/01/31 01:43:17;;;;;;;22.47;14.63;;;7.50;99.90;;;;;;5090096;28;20228;-64
2024/01/31 01:45:46;;;;;;;26.17;14.83;;;7.50;99.90;;;;;;5073873;28;20258;-64
2024/01/31 01:48:16;;;;;;;30.53;16.13;;;7.50;99.90;;;;;;5092893;28;20188;-65
2024/01/31 01:50:46;;;;;;;24.93;15.20;;;7.50;99.90;;;;;;5092724;28;20301;-65
2024/01/31 01:53:15;;;;;;;25.97;15.57;;;7.50;99.90;;;;;;5092568;28;20235;-63
2024/01/31 01:55:46;;;;;;;23.50;15.37;;;7.50;99.90;;;;;;5092289;28;20662;-64
2024/01/31 01:58:14;;;;;;;25.37;16.57;;;7.60;99.90;;;;;;5092386;28;20677;-63
2024/01/31 02:00:45;;;;;;;28.03;15.77;;;7.60;99.90;;;;;;5092657;28;20674;-64
2024/01/31 02:03:15;;;;;;;30.30;17.97;;;7.60;99.90;;;;;;5092579;28;20205;-64
2024/01/31 02:05:46;;;;;;;32.27;18.53;;;7.50;99.90;;;;;;5092409;28;20233;-63
2024/01/31 02:08:15;;;;;;;32.50;19.03;;;7.50;99.90;;;;;;5092346;28;20180;-63
2024/01/31 02:10:43;;;;;;;28.73;18.77;;;7.50;99.90;;;;;;5092322;28;20194;-66
2024/01/31 02:13:13;;;;;;;31.43;18.53;;;7.60;99.90;;;;;;5092152;28;20243;-62
2024/01/31 02:15:51;;;;;;;29.17;18.17;;;7.70;99.90;;;;;;5092216;28;20641;-63
2024/01/31 02:18:20;;;;;;;36.10;19.30;;;7.70;99.90;;;;;;5091954;28;20200;-63
2024/01/31 02:20:49;;;;;;;30.03;18.93;;;7.60;99.90;;;;;;5091998;28;20674;-63
2024/01/31 02:23:19;;;;;;;37.37;20.23;;;7.60;99.90;;;;;;5091841;28;20678;-63
2024/01/31 02:25:47;;;;;;;31.30;19.23;;;7.70;99.90;;;;;;5091869;28;20701;-64
2024/01/31 02:28:16;;;;;;;33.80;21.17;;;7.70;99.90;;;;;;5092020;28;20610;-63
2024/01/31 02:30:44;;;;;;;30.33;20.27;;;7.70;99.90;;;;;;5091678;28;20244;-63
2024/01/31 02:33:13;;;;;;;35.07;21.13;;;7.70;99.90;;;;;;5091835;28;20208;-64
2024/01/31 02:35:41;;;;;;;29.53;19.60;;;7.80;99.90;;;;;;5091788;28;20193;-63
2024/01/31 02:38:09;;;;;;;36.33;20.17;;;7.60;99.90;;;;;;5091923;28;20798;-64
2024/01/31 02:40:39;;;;;;;29.63;20.20;;;7.60;99.90;;;;;;5091817;28;20288;-64
2024/01/31 02:43:08;;;;;;;33.83;20.77;;;7.70;99.90;;;;;;5091947;28;20666;-63
2024/01/31 02:45:36;;;;;;;38.87;20.33;;;7.70;99.90;;;;;;5091596;28;21116;-65
2024/01/31 02:48:05;;;;;;;32.63;20.53;;;7.70;99.90;;;;;;5091497;28;20206;-63
2024/01/31 02:50:34;;;;;;;30.93;18.77;;;7.70;99.90;;;;;;5091520;28;20193;-63
2024/01/31 02:53:02;;;;;;;35.27;20.17;;;7.70;99.90;;;;;;5091141;28;20205;-64
2024/01/31 02:55:31;;;;;;;34.03;21.50;;;7.70;99.90;;;;;;5091080;28;20193;-64
